Terminal Aerodrome Forecast
Issued by NWS

Home | Current Version | Previous Version | Text Only | Print | Product List | Glossary On
Versions: 1 2 3 4 5 6 7 8 9 10 11 12 13 14 15 16 17
145
FTUS45 KABQ 031811 AAA
TAFTCC
TAF AMD
KTCC 031811Z 0318/0418 04010KT P6SM VCSH OVC020
      TEMPO 0318/0320 2SM -SHRASN OVC006
     FM032000 VRB05KT P6SM VCSH SCT025 BKN040
      TEMPO 0320/0322 -SHRA OVC025
     FM040400 36005KT P6SM SCT015 OVC035
     FM040900 VRB05KT P6SM OVC015=

USA.gov is the U.S. government's official web portal to all federal, state and local government web resources and services.